createdAt,value
2019-05-06T00:00:21.367Z,99.90
2019-05-06T00:02:54.244Z,99.90
2019-05-06T00:05:25.493Z,99.90
2019-05-06T00:07:56.503Z,99.90
2019-05-06T00:10:30.188Z,99.90
2019-05-06T00:13:00.960Z,99.90
2019-05-06T00:15:34.091Z,99.90
2019-05-06T00:18:04.701Z,99.90
2019-05-06T00:20:35.690Z,99.90
2019-05-06T00:23:14.061Z,99.90
2019-05-06T00:26:13.694Z,99.90
2019-05-06T00:28:48.063Z,99.90
2019-05-06T00:31:19.830Z,99.90
2019-05-06T00:33:50.654Z,99.90
2019-05-06T00:36:23.587Z,99.90
2019-05-06T00:38:56.767Z,99.90
2019-05-06T00:41:29.673Z,99.90
2019-05-06T00:44:00.542Z,99.90
2019-05-06T00:46:31.408Z,99.90
2019-05-06T00:49:03.849Z,99.90
2019-05-06T00:51:34.625Z,99.90
2019-05-06T00:54:14.285Z,99.90
2019-05-06T00:56:46.171Z,99.90
2019-05-06T00:59:17.136Z,99.90
2019-05-06T01:01:47.859Z,99.90
2019-05-06T01:04:18.655Z,99.90
2019-05-06T01:06:49.590Z,99.90
2019-05-06T01:09:20.750Z,99.90
2019-05-06T01:11:54.180Z,99.90
2019-05-06T01:14:31.011Z,99.90
2019-05-06T01:17:03.882Z,99.90
2019-05-06T01:19:34.404Z,99.90
2019-05-06T01:22:05.411Z,99.90
2019-05-06T01:24:36.212Z,99.90
2019-05-06T01:27:07.083Z,99.90
2019-05-06T01:29:38.023Z,99.90
2019-05-06T01:32:08.812Z,99.90
2019-05-06T01:34:39.597Z,99.90
2019-05-06T01:37:10.689Z,99.90
2019-05-06T01:39:57.768Z,99.90
2019-05-06T01:42:34.472Z,99.90
2019-05-06T01:45:06.421Z,99.90
2019-05-06T01:47:37.197Z,99.90
2019-05-06T01:50:08.191Z,99.90
2019-05-06T01:52:39.025Z,99.90
2019-05-06T01:55:10.080Z,99.90
2019-05-06T01:57:40.832Z,99.90
2019-05-06T02:00:13.947Z,99.90
2019-05-06T02:02:44.601Z,99.90
2019-05-06T02:05:15.493Z,99.90
2019-05-06T02:07:46.310Z,99.90
2019-05-06T02:10:17.220Z,99.90
2019-05-06T02:12:48.997Z,99.90
2019-05-06T02:15:20.178Z,99.90
2019-05-06T02:17:50.929Z,99.90
2019-05-06T02:20:24.726Z,99.90
2019-05-06T02:23:04.045Z,99.90
2019-05-06T02:25:39.215Z,99.90
2019-05-06T02:28:09.964Z,99.90
2019-05-06T02:30:50.902Z,99.90
2019-05-06T02:33:31.459Z,99.90
2019-05-06T02:36:30.349Z,99.90
2019-05-06T02:39:03.659Z,99.90
2019-05-06T02:41:35.203Z,99.90
2019-05-06T02:44:10.004Z,99.90
2019-05-06T02:46:40.394Z,99.90
2019-05-06T02:49:39.985Z,99.90
2019-05-06T02:52:13.828Z,99.90
2019-05-06T02:54:43.439Z,99.90
2019-05-06T02:57:14.346Z,99.90
2019-05-06T02:59:45.138Z,99.90
2019-05-06T03:02:33.703Z,99.90
2019-05-06T03:04:49.148Z,99.90
2019-05-06T03:07:23.159Z,99.90
2019-05-06T03:09:53.414Z,99.90
2019-05-06T03:12:24.361Z,99.90
2019-05-06T03:14:55.250Z,99.90
2019-05-06T03:17:26.467Z,99.90
2019-05-06T03:19:58.860Z,99.90
2019-05-06T03:22:39.350Z,99.90
2019-05-06T03:25:24.063Z,99.90
2019-05-06T03:27:55.080Z,99.90
2019-05-06T03:30:26.082Z,99.90
2019-05-06T03:33:31.244Z,99.90
2019-05-06T03:35:48.202Z,99.90
2019-05-06T03:38:03.858Z,99.90
2019-05-06T03:40:36.647Z,99.90
2019-05-06T03:43:08.187Z,99.90
2019-05-06T03:45:48.158Z,99.90
2019-05-06T03:48:28.404Z,99.90
2019-05-06T03:50:59.108Z,99.90
2019-05-06T03:53:33.343Z,99.90
2019-05-06T03:56:04.219Z,99.90
2019-05-06T03:58:37.796Z,99.90
2019-05-06T04:01:12.941Z,99.90
2019-05-06T04:03:48.656Z,99.90
2019-05-06T04:06:15.503Z,99.90
2019-05-06T04:08:46.489Z,99.90
2019-05-06T04:11:18.585Z,99.90
2019-05-06T04:13:49.858Z,99.90
2019-05-06T04:16:35.601Z,99.90
2019-05-06T04:19:13.090Z,99.90
2019-05-06T04:21:53.398Z,99.90
2019-05-06T04:24:43.048Z,99.90
2019-05-06T04:27:26.962Z,99.90
2019-05-06T04:29:57.867Z,99.90
2019-05-06T04:32:28.764Z,99.90
2019-05-06T04:35:00.029Z,99.90
2019-05-06T04:37:33.727Z,99.90
2019-05-06T04:40:04.719Z,99.90
2019-05-06T04:42:35.689Z,99.90
2019-05-06T04:45:07.041Z,99.90
2019-05-06T04:47:38.003Z,99.90
2019-05-06T04:50:09.287Z,99.90
2019-05-06T04:52:43.295Z,99.90
2019-05-06T04:55:14.172Z,99.90
2019-05-06T04:57:45.206Z,99.90
2019-05-06T05:00:16.217Z,99.90
2019-05-06T05:02:47.081Z,99.90
2019-05-06T05:05:18.203Z,99.90
2019-05-06T05:07:49.186Z,99.90
2019-05-06T05:10:24.537Z,99.90
2019-05-06T05:13:12.554Z,99.90
2019-05-06T05:16:04.922Z,99.90
2019-05-06T05:18:43.288Z,99.90
2019-05-06T05:21:14.260Z,99.90
2019-05-06T05:23:45.037Z,99.90
2019-05-06T05:26:16.927Z,99.90
2019-05-06T05:28:48.819Z,99.90
2019-05-06T05:31:20.166Z,99.90
2019-05-06T05:33:52.626Z,99.90
2019-05-06T05:36:23.840Z,99.90
2019-05-06T05:38:54.822Z,99.90
2019-05-06T05:41:25.792Z,99.90
2019-05-06T05:44:16.694Z,99.90
2019-05-06T05:46:47.792Z,99.90
2019-05-06T05:49:30.001Z,99.90
2019-05-06T05:52:03.230Z,99.90
2019-05-06T05:54:33.612Z,99.90
2019-05-06T05:57:04.448Z,99.90
2019-05-06T05:59:35.422Z,99.90
2019-05-06T06:02:06.596Z,99.90
2019-05-06T06:04:50.739Z,99.90
2019-05-06T06:07:12.070Z,99.90
2019-05-06T06:09:52.926Z,99.90
2019-05-06T06:12:23.981Z,99.90
2019-05-06T06:15:13.919Z,99.90
2019-05-06T06:18:03.073Z,99.90
2019-05-06T06:20:58.804Z,99.90
2019-05-06T06:23:33.120Z,99.90
2019-05-06T06:26:04.178Z,99.90
2019-05-06T06:28:35.822Z,99.90
2019-05-06T06:31:23.010Z,99.90
2019-05-06T06:33:57.738Z,99.90
2019-05-06T06:36:41.769Z,99.90
2019-05-06T06:39:22.874Z,99.90
2019-05-06T06:41:53.728Z,99.90
2019-05-06T06:44:27.240Z,99.90
2019-05-06T06:46:59.043Z,99.90
2019-05-06T06:49:29.972Z,99.90
2019-05-06T06:52:02.688Z,99.90
2019-05-06T06:54:33.235Z,99.90
2019-05-06T06:57:21.777Z,99.90
2019-05-06T07:00:08.842Z,99.90
2019-05-06T07:02:56.882Z,99.90
2019-05-06T07:05:39.188Z,99.90
2019-05-06T07:08:09.914Z,99.90
2019-05-06T07:10:44.067Z,99.90
2019-05-06T07:13:16.308Z,99.90
2019-05-06T07:15:47.186Z,99.90
2019-05-06T07:18:18.225Z,99.90
2019-05-06T07:21:14.003Z,99.90
2019-05-06T07:23:45.904Z,99.90
2019-05-06T07:26:18.272Z,99.90
2019-05-06T07:28:49.400Z,99.90
2019-05-06T07:31:23.864Z,99.90
2019-05-06T07:33:52.814Z,99.90
2019-05-06T07:36:23.700Z,99.90
2019-05-06T07:38:54.555Z,99.90
2019-05-06T07:41:46.100Z,99.90
2019-05-06T07:44:36.258Z,99.90
2019-05-06T07:47:15.570Z,99.90
2019-05-06T07:49:45.843Z,99.90
2019-05-06T07:52:17.317Z,99.90
2019-05-06T07:54:48.173Z,99.90
2019-05-06T07:57:18.971Z,99.90
2019-05-06T07:59:52.542Z,99.90
2019-05-06T08:02:23.428Z,98.20
2019-05-06T08:04:55.251Z,93.60
2019-05-06T08:07:25.964Z,92.80
2019-05-06T08:09:56.770Z,93.40
2019-05-06T08:12:27.610Z,95.00
2019-05-06T08:14:58.597Z,95.50
2019-05-06T08:17:36.793Z,95.50
2019-05-06T08:20:08.257Z,95.60
2019-05-06T08:22:47.014Z,96.50
2019-05-06T08:25:17.897Z,97.90
2019-05-06T08:27:49.584Z,97.80
2019-05-06T08:30:22.954Z,94.30
2019-05-06T08:32:53.329Z,92.90
2019-05-06T08:35:24.448Z,92.90
2019-05-06T08:37:55.149Z,92.00
2019-05-06T08:40:26.582Z,95.70
2019-05-06T08:42:58.693Z,93.20
2019-05-06T08:45:29.816Z,94.30
2019-05-06T08:48:02.417Z,91.20
2019-05-06T08:51:02.779Z,92.50
2019-05-06T08:53:42.464Z,92.50
2019-05-06T08:56:16.599Z,92.80
2019-05-06T08:58:48.103Z,92.50
2019-05-06T09:01:36.746Z,93.30
2019-05-06T09:04:12.489Z,93.80
2019-05-06T09:06:43.102Z,94.80
2019-05-06T09:09:13.571Z,92.20
2019-05-06T09:11:44.416Z,95.10
2019-05-06T09:14:15.737Z,88.80
2019-05-06T09:16:50.497Z,89.70
2019-05-06T09:19:20.087Z,90.00
2019-05-06T09:21:53.205Z,88.50
2019-05-06T09:24:23.845Z,88.10
2019-05-06T09:27:00.336Z,90.70
2019-05-06T09:29:42.721Z,91.60
2019-05-06T09:32:18.918Z,94.20
2019-05-06T09:34:52.666Z,93.40
2019-05-06T09:37:24.387Z,92.40
2019-05-06T09:39:55.373Z,91.80
2019-05-06T09:42:26.250Z,91.50
2019-05-06T09:44:57.128Z,86.20
2019-05-06T09:47:52.759Z,85.70
2019-05-06T09:50:37.934Z,84.20
2019-05-06T09:53:19.375Z,88.20
2019-05-06T09:56:08.034Z,82.80
2019-05-06T09:58:42.884Z,84.80
2019-05-06T10:01:17.238Z,83.10
2019-05-06T10:03:48.108Z,84.80
2019-05-06T10:06:18.828Z,82.20
2019-05-06T10:08:49.673Z,82.00
2019-05-06T10:11:22.259Z,79.90
2019-05-06T10:13:53.080Z,79.70
2019-05-06T10:16:23.943Z,81.60
2019-05-06T10:18:54.934Z,82.90
2019-05-06T10:21:25.788Z,82.90
2019-05-06T10:23:56.825Z,82.90
2019-05-06T10:26:28.574Z,80.10
2019-05-06T10:29:22.265Z,79.20
2019-05-06T10:32:00.840Z,80.30
2019-05-06T10:34:32.799Z,81.10
2019-05-06T10:37:20.733Z,81.80
2019-05-06T10:40:03.285Z,82.10
2019-05-06T10:42:43.087Z,79.10
2019-05-06T10:45:28.650Z,75.40
2019-05-06T10:47:59.441Z,72.20
2019-05-06T10:50:34.234Z,70.10
2019-05-06T10:53:19.416Z,70.30
2019-05-06T10:56:02.904Z,71.10
2019-05-06T10:58:33.913Z,70.70
2019-05-06T11:01:23.179Z,69.30
2019-05-06T11:03:53.986Z,71.90
2019-05-06T11:06:25.528Z,70.70
2019-05-06T11:08:56.724Z,68.00
2019-05-06T11:11:35.125Z,69.80
2019-05-06T11:14:00.164Z,70.30
2019-05-06T11:16:33.106Z,72.30
2019-05-06T11:19:05.205Z,74.20
2019-05-06T11:21:35.981Z,73.60
2019-05-06T11:24:06.843Z,75.90
2019-05-06T11:26:37.905Z,75.00
2019-05-06T11:29:14.351Z,78.20
2019-05-06T11:32:16.451Z,73.00
2019-05-06T11:34:55.849Z,72.60
2019-05-06T11:38:00.593Z,70.10
2019-05-06T11:40:32.971Z,61.50
2019-05-06T11:43:03.867Z,59.80
2019-05-06T11:45:34.586Z,62.00
2019-05-06T11:48:05.387Z,61.10
2019-05-06T11:50:37.496Z,60.70
2019-05-06T11:53:08.264Z,61.30
2019-05-06T11:55:39.289Z,66.10
2019-05-06T11:58:29.470Z,66.20
2019-05-06T12:01:03.415Z,63.60
2019-05-06T12:03:34.153Z,66.20
2019-05-06T12:06:05.052Z,67.40
2019-05-06T12:08:35.783Z,69.30
2019-05-06T12:11:06.633Z,72.10
2019-05-06T12:13:38.270Z,70.90
2019-05-06T12:16:09.218Z,67.50
2019-05-06T12:18:42.090Z,67.70
2019-05-06T12:21:18.859Z,66.70
2019-05-06T12:23:45.162Z,66.70
2019-05-06T12:26:16.363Z,67.30
2019-05-06T12:28:47.312Z,71.10
2019-05-06T12:31:18.221Z,69.20
2019-05-06T12:33:53.081Z,68.60
2019-05-06T12:36:23.960Z,64.20
2019-05-06T12:39:15.980Z,65.60
2019-05-06T12:42:13.661Z,66.50
2019-05-06T12:44:56.991Z,65.30
2019-05-06T12:47:38.454Z,65.70
2019-05-06T12:50:09.388Z,68.20
2019-05-06T12:52:40.200Z,65.50
2019-05-06T12:55:18.409Z,67.00
2019-05-06T12:57:43.529Z,66.00
2019-05-06T13:00:14.785Z,66.00
2019-05-06T13:02:46.004Z,65.80
2019-05-06T13:05:17.078Z,65.80
2019-05-06T13:07:48.064Z,67.10
2019-05-06T13:10:22.761Z,65.20
2019-05-06T13:12:58.041Z,64.90
2019-05-06T13:15:29.680Z,66.30
2019-05-06T13:18:06.478Z,65.30
2019-05-06T13:20:35.319Z,66.70
2019-05-06T13:23:20.130Z,63.40
2019-05-06T13:25:45.391Z,63.60
2019-05-06T13:28:17.639Z,69.10
2019-05-06T13:30:49.956Z,68.20
2019-05-06T13:33:44.087Z,66.50
2019-05-06T13:36:15.116Z,66.70
2019-05-06T13:38:46.223Z,66.00
2019-05-06T13:41:17.131Z,65.20
2019-05-06T13:44:07.287Z,64.40
2019-05-06T13:46:43.648Z,66.00
2019-05-06T13:49:38.996Z,66.60
2019-05-06T13:52:12.712Z,67.20
2019-05-06T13:54:43.901Z,65.00
2019-05-06T13:57:14.715Z,65.40
2019-05-06T13:59:45.772Z,66.20
2019-05-06T14:02:43.683Z,66.90
2019-05-06T14:05:14.394Z,66.50
2019-05-06T14:07:45.898Z,69.00
2019-05-06T14:10:16.869Z,68.80
2019-05-06T14:12:47.683Z,71.00
2019-05-06T14:15:20.237Z,67.50
2019-05-06T14:17:53.238Z,69.00
2019-05-06T14:20:23.618Z,68.60
2019-05-06T14:22:54.336Z,70.00
2019-05-06T14:25:36.348Z,69.20
2019-05-06T14:28:18.593Z,68.70
2019-05-06T14:30:55.719Z,67.20
2019-05-06T14:33:26.612Z,69.10
2019-05-06T14:35:57.792Z,69.50
2019-05-06T14:38:28.596Z,67.90
2019-05-06T14:41:08.199Z,69.20
2019-05-06T14:43:38.545Z,69.10
2019-05-06T14:46:09.341Z,68.80
2019-05-06T14:48:40.006Z,69.70
2019-05-06T14:51:12.905Z,69.90
2019-05-06T14:53:43.847Z,71.50
2019-05-06T14:56:23.646Z,72.30
2019-05-06T14:59:07.223Z,70.70
2019-05-06T15:01:39.936Z,73.00
2019-05-06T15:04:12.484Z,72.30
2019-05-06T15:06:43.061Z,73.40
2019-05-06T15:09:13.958Z,74.10
2019-05-06T15:11:45.206Z,72.70
2019-05-06T15:14:16.230Z,74.20
2019-05-06T15:16:47.011Z,75.30
2019-05-06T15:19:17.776Z,76.10
2019-05-06T15:21:48.549Z,76.40
2019-05-06T15:24:21.852Z,76.60
2019-05-06T15:26:52.152Z,77.70
2019-05-06T15:29:23.809Z,79.30
2019-05-06T15:32:34.104Z,78.20
2019-05-06T15:35:17.226Z,79.60
2019-05-06T15:37:56.486Z,79.80
2019-05-06T15:40:32.939Z,80.60
2019-05-06T15:43:02.098Z,83.80
2019-05-06T15:45:32.661Z,88.10
2019-05-06T15:48:03.478Z,90.70
2019-05-06T15:50:34.259Z,90.40
2019-05-06T15:53:05.439Z,91.30
2019-05-06T15:55:36.813Z,90.90
2019-05-06T15:58:07.787Z,92.20
2019-05-06T16:00:38.784Z,90.90
2019-05-06T16:03:09.697Z,89.60
2019-05-06T16:05:40.599Z,90.40
2019-05-06T16:08:12.574Z,89.30
2019-05-06T16:10:52.242Z,90.80
2019-05-06T16:13:16.972Z,90.10
2019-05-06T16:15:48.790Z,90.10
2019-05-06T16:18:19.656Z,90.30
2019-05-06T16:20:50.668Z,90.00
2019-05-06T16:23:27.296Z,91.00
2019-05-06T16:25:58.270Z,91.00
2019-05-06T16:28:29.603Z,91.00
2019-05-06T16:31:02.412Z,92.70
2019-05-06T16:33:34.104Z,93.20
2019-05-06T16:36:04.982Z,91.60
2019-05-06T16:38:36.223Z,92.10
2019-05-06T16:41:12.816Z,92.50
2019-05-06T16:43:42.598Z,92.70
2019-05-06T16:46:13.211Z,93.10
2019-05-06T16:48:45.517Z,93.30
2019-05-06T16:51:16.467Z,94.00
2019-05-06T16:53:47.320Z,94.70
2019-05-06T16:56:41.838Z,95.40
2019-05-06T16:59:13.787Z,95.70
2019-05-06T17:01:46.061Z,96.30
2019-05-06T17:04:41.936Z,96.90
2019-05-06T17:07:13.948Z,97.50
2019-05-06T17:09:44.762Z,97.40
2019-05-06T17:12:15.592Z,97.10
2019-05-06T17:14:46.396Z,97.00
2019-05-06T17:17:17.238Z,97.10
2019-05-06T17:19:48.162Z,97.20
2019-05-06T17:22:18.955Z,98.30
2019-05-06T17:24:50.021Z,98.90
2019-05-06T17:27:21.065Z,99.10
2019-05-06T17:30:07.932Z,98.90
2019-05-06T17:32:42.109Z,99.30
2019-05-06T17:35:12.906Z,99.70
2019-05-06T17:38:03.688Z,99.90
2019-05-06T17:40:34.620Z,99.90
2019-05-06T17:43:05.687Z,99.70
2019-05-06T17:46:00.256Z,99.90
2019-05-06T17:48:54.453Z,99.90
2019-05-06T17:51:35.603Z,99.90
2019-05-06T17:54:06.087Z,99.90
2019-05-06T17:56:37.703Z,99.90
2019-05-06T17:59:08.582Z,99.90
2019-05-06T18:01:43.072Z,99.90
2019-05-06T18:04:14.129Z,99.90
2019-05-06T18:06:45.018Z,99.90
2019-05-06T18:09:15.765Z,99.90
2019-05-06T18:11:58.556Z,99.90
2019-05-06T18:14:22.791Z,99.90
2019-05-06T18:16:53.951Z,99.90
2019-05-06T18:19:24.946Z,99.90
2019-05-06T18:21:56.983Z,99.90
2019-05-06T18:24:27.766Z,99.90
2019-05-06T18:26:58.611Z,99.90
2019-05-06T18:29:29.665Z,99.90
2019-05-06T18:32:00.826Z,99.90
2019-05-06T18:34:33.059Z,99.90
2019-05-06T18:37:04.148Z,99.90
2019-05-06T18:39:35.009Z,99.90
2019-05-06T18:42:16.776Z,99.90
2019-05-06T18:44:38.777Z,99.90
2019-05-06T18:47:12.077Z,99.90
2019-05-06T18:49:43.126Z,99.90
2019-05-06T18:52:15.014Z,99.90
2019-05-06T18:54:45.848Z,99.90
2019-05-06T18:57:19.850Z,99.90
2019-05-06T18:59:53.076Z,99.90
2019-05-06T19:02:23.621Z,99.90
2019-05-06T19:05:02.220Z,99.90
2019-05-06T19:07:33.412Z,99.90
2019-05-06T19:10:12.897Z,99.90
2019-05-06T19:12:43.600Z,99.90
2019-05-06T19:15:14.657Z,99.90
2019-05-06T19:17:45.544Z,99.90
2019-05-06T19:20:17.466Z,99.90
2019-05-06T19:22:48.353Z,99.90
2019-05-06T19:25:19.674Z,99.90
2019-05-06T19:27:52.949Z,99.90
2019-05-06T19:30:24.067Z,99.90
2019-05-06T19:32:54.949Z,99.90
2019-05-06T19:35:25.782Z,99.90
2019-05-06T19:37:56.605Z,99.90
2019-05-06T19:40:27.296Z,99.90
2019-05-06T19:42:58.029Z,99.90
2019-05-06T19:45:29.474Z,99.90
2019-05-06T19:48:02.697Z,99.90
2019-05-06T19:50:33.593Z,99.90
2019-05-06T19:53:04.407Z,99.90
2019-05-06T19:55:36.272Z,99.90
2019-05-06T19:58:07.312Z,99.90
2019-05-06T20:00:38.173Z,99.90
2019-05-06T20:03:08.954Z,99.90
2019-05-06T20:05:47.863Z,99.90
2019-05-06T20:08:42.127Z,99.90
2019-05-06T20:11:30.002Z,99.90
2019-05-06T20:14:02.060Z,99.90
2019-05-06T20:16:34.712Z,99.90
2019-05-06T20:19:05.723Z,99.90
2019-05-06T20:21:36.559Z,99.90
2019-05-06T20:24:07.496Z,99.90
2019-05-06T20:26:38.658Z,99.90
2019-05-06T20:29:09.440Z,99.90
2019-05-06T20:31:40.155Z,99.90
2019-05-06T20:34:12.883Z,99.90
2019-05-06T20:36:43.773Z,99.90
2019-05-06T20:39:14.571Z,99.90
2019-05-06T20:41:45.439Z,99.90
2019-05-06T20:44:16.285Z,99.90
2019-05-06T20:46:47.524Z,99.90
2019-05-06T20:49:18.536Z,99.90
2019-05-06T20:51:51.978Z,99.90
2019-05-06T20:54:23.709Z,99.90
2019-05-06T20:56:55.991Z,99.90
2019-05-06T20:59:26.712Z,99.90
2019-05-06T21:01:57.780Z,99.90
2019-05-06T21:04:28.485Z,99.90
2019-05-06T21:06:59.223Z,99.90
2019-05-06T21:09:31.991Z,99.90
2019-05-06T21:12:02.621Z,99.90
2019-05-06T21:14:33.431Z,99.90
2019-05-06T21:17:05.484Z,99.90
2019-05-06T21:19:36.320Z,99.90
2019-05-06T21:22:07.554Z,99.90
2019-05-06T21:24:38.312Z,99.90
2019-05-06T21:27:08.981Z,99.90
2019-05-06T21:29:41.907Z,99.90
2019-05-06T21:32:12.149Z,99.90
2019-05-06T21:34:43.310Z,99.90
2019-05-06T21:37:14.008Z,99.90
2019-05-06T21:39:45.282Z,99.90
2019-05-06T21:42:17.615Z,99.90
2019-05-06T21:44:48.575Z,99.90
2019-05-06T21:47:19.292Z,99.90
2019-05-06T21:49:50.090Z,99.90
2019-05-06T21:52:34.377Z,99.90
2019-05-06T21:54:53.230Z,99.90
2019-05-06T21:57:23.960Z,99.90
2019-05-06T21:59:54.998Z,99.90
2019-05-06T22:02:25.967Z,99.90
2019-05-06T22:04:56.732Z,99.90
2019-05-06T22:07:27.566Z,99.90
2019-05-06T22:09:58.199Z,99.90
2019-05-06T22:12:29.016Z,99.90
2019-05-06T22:14:59.995Z,99.90
2019-05-06T22:17:31.998Z,99.90
2019-05-06T22:20:04.000Z,99.90
2019-05-06T22:22:35.421Z,99.90
2019-05-06T22:25:06.374Z,99.90
2019-05-06T22:27:37.273Z,99.90
2019-05-06T22:30:08.526Z,99.90
2019-05-06T22:32:45.850Z,99.90
2019-05-06T22:35:17.831Z,99.90
2019-05-06T22:37:48.656Z,99.90
2019-05-06T22:40:23.339Z,99.90
2019-05-06T22:42:52.972Z,99.90
2019-05-06T22:45:23.726Z,99.90
2019-05-06T22:47:55.016Z,99.90
2019-05-06T22:50:25.720Z,99.90
2019-05-06T22:52:56.526Z,99.90
2019-05-06T22:55:27.351Z,99.90
2019-05-06T22:57:58.383Z,99.90
2019-05-06T23:00:33.094Z,99.90
2019-05-06T23:03:07.168Z,99.90
2019-05-06T23:05:38.095Z,99.90
2019-05-06T23:08:08.805Z,99.90
2019-05-06T23:10:42.106Z,99.90
2019-05-06T23:13:12.648Z,99.90
2019-05-06T23:15:44.319Z,99.90
2019-05-06T23:18:15.139Z,99.90
2019-05-06T23:20:46.026Z,99.90
2019-05-06T23:23:17.140Z,99.90
2019-05-06T23:26:06.905Z,99.90
2019-05-06T23:28:38.098Z,99.90
2019-05-06T23:31:09.158Z,99.90
2019-05-06T23:33:40.043Z,99.90
2019-05-06T23:36:12.102Z,99.90
2019-05-06T23:39:18.622Z,99.90
2019-05-06T23:42:25.240Z,99.90
2019-05-06T23:45:32.449Z,99.90
2019-05-06T23:48:38.979Z,99.90
2019-05-06T23:51:45.523Z,99.90
2019-05-06T23:54:52.328Z,99.90
2019-05-06T23:57:22.493Z,99.90
2019-05-06T23:59:54.674Z,99.90
